Skip Navigation Links
NOAA logo - Click to go to the NOAA homepage
NOAA's National Weather Service
Alaska Aviation Weather Unit
  NWS logo - Click to go to the NWS homepage
Left Navbar Graphic     03 AKDT = 11 GMT

   
NOAA is celebrating 200 years of science, service, and stewardship. Visit the NOAA 200th celebration Web site to learn more.
USA.gov is the U.S. Government's official Web portal to all Federal, state and local government Web resources and services.
Facebook
NWS on Facebook

AAWU Home :: Display TAF Add Bookmark
TAF PASC 290520Z 2906/3006 21007KT P6SM FEW015 BKN180
     FM291600 21010KT P6SM SCT010 BKN015=

METAR PASC 290553Z 21007KT 10SM BKN180 M28/M31 A2985= METAR PASC 290653Z 21007KT 10SM SCT180 M28/M31 A2985= METAR PASC 290753Z 20009KT 10SM CLR M28/M31 A2985= METAR PASC 290853Z 21007KT 10SM BKN240 M27/M29 A2985= METAR PASC 290953Z 22012KT 10SM BKN150 M24/M28 A2985= PASC 291040Z 22014KT 10SM BKN012 BKN120 M24/M27 A2985= SPECI PASC 291040Z 22014KT 10SM BKN012 BKN120 M24/M27 A2985 RMK AO2 T12391267=
 Alaska TAF Map

NOAA's National Weather Service
Alaska Aviation Weather Unit
6930 Sand Lake Road
Anchorage, AK 99502-1845
Disclaimer
Credits
Glossary
Privacy Policy
About Us
Career Opportunities
Contact AAWU Internet Services Site last modified: April, 17th 2012